createdAt,value
2023-04-26T00:00:06.430Z,179.81
2023-04-26T00:01:06.504Z,179.72
2023-04-26T00:02:06.563Z,179.59
2023-04-26T00:03:06.763Z,179.40
2023-04-26T00:04:06.900Z,179.68
2023-04-26T00:05:07.028Z,178.79
2023-04-26T00:06:06.852Z,177.78
2023-04-26T00:07:06.857Z,178.70
2023-04-26T00:08:06.991Z,178.86
2023-04-26T00:09:06.990Z,179.96
2023-04-26T00:10:07.049Z,179.13
2023-04-26T00:11:07.104Z,178.57
2023-04-26T00:12:07.158Z,178.07
2023-04-26T00:13:07.253Z,178.20
2023-04-26T00:14:07.302Z,178.92
2023-04-26T00:15:07.354Z,179.34
2023-04-26T00:16:07.436Z,178.96
2023-04-26T00:17:07.463Z,178.20
2023-04-26T00:18:07.563Z,179.48
2023-04-26T00:19:07.688Z,178.75
2023-04-26T00:20:07.697Z,178.12
2023-04-26T00:21:07.707Z,179.34
2023-04-26T00:22:07.789Z,179.50
2023-04-26T00:23:07.822Z,179.59
2023-04-26T00:24:07.898Z,178.65
2023-04-26T00:25:07.951Z,178.72
2023-04-26T00:26:08.000Z,178.57
2023-04-26T00:27:08.059Z,178.35
2023-04-26T00:28:08.129Z,178.96
2023-04-26T00:29:08.217Z,177.45
2023-04-26T00:30:08.235Z,178.03
2023-04-26T00:31:08.303Z,179.45
2023-04-26T00:32:08.415Z,177.97
2023-04-26T00:33:08.512Z,178.73
2023-04-26T00:34:08.501Z,178.33
2023-04-26T00:35:08.573Z,178.78
2023-04-26T00:36:08.606Z,178.14
2023-04-26T00:37:08.664Z,179.11
2023-04-26T00:38:08.737Z,178.32
2023-04-26T00:39:08.793Z,179.89
2023-04-26T00:40:08.855Z,179.40
2023-04-26T00:41:08.946Z,178.43
2023-04-26T00:42:09.001Z,178.03
2023-04-26T00:43:09.034Z,179.27
2023-04-26T00:44:09.104Z,177.84
2023-04-26T00:45:09.158Z,178.48
2023-04-26T00:46:09.247Z,178.95
2023-04-26T00:47:09.298Z,178.16
2023-04-26T00:48:09.403Z,177.71
2023-04-26T00:49:09.410Z,178.07
2023-04-26T00:50:09.478Z,178.52
2023-04-26T00:51:09.541Z,178.22
2023-04-26T00:52:09.604Z,178.61
2023-04-26T00:53:09.671Z,178.70
2023-04-26T00:54:09.720Z,178.75
2023-04-26T00:55:09.767Z,178.79
2023-04-26T00:56:09.883Z,177.18
2023-04-26T00:57:09.899Z,178.52
2023-04-26T00:58:09.956Z,178.60
2023-04-26T00:59:10.053Z,177.70
2023-04-26T01:00:10.098Z,179.06
2023-04-26T01:01:10.212Z,179.77
2023-04-26T01:02:10.254Z,178.59
2023-04-26T01:03:10.380Z,179.56
2023-04-26T01:04:10.389Z,178.48
2023-04-26T01:05:10.407Z,178.09
2023-04-26T01:06:10.480Z,178.75
2023-04-26T01:07:10.567Z,178.42
2023-04-26T01:08:10.592Z,177.51
2023-04-26T01:09:10.686Z,177.68
2023-04-26T01:10:10.744Z,177.86
2023-04-26T01:11:10.778Z,177.22
2023-04-26T01:12:10.837Z,178.76
2023-04-26T01:13:10.902Z,177.92
2023-04-26T01:14:10.963Z,178.59
2023-04-26T01:15:11.003Z,177.06
2023-04-26T01:16:11.026Z,178.92
2023-04-26T01:17:11.145Z,178.45
2023-04-26T01:18:11.151Z,178.12
2023-04-26T01:19:11.173Z,178.00
2023-04-26T01:20:11.221Z,178.68
2023-04-26T01:21:11.295Z,177.59
2023-04-26T01:22:11.350Z,177.82
2023-04-26T01:23:11.415Z,178.35
2023-04-26T01:24:11.470Z,177.21
2023-04-26T01:25:11.529Z,177.95
2023-04-26T01:26:11.567Z,178.18
2023-04-26T01:27:11.592Z,178.14
2023-04-26T01:28:11.605Z,178.76
2023-04-26T01:29:11.637Z,178.33
2023-04-26T01:30:11.715Z,178.18
2023-04-26T01:31:11.735Z,178.04
2023-04-26T01:32:11.825Z,178.98
2023-04-26T01:33:11.760Z,178.12
2023-04-26T01:34:11.835Z,178.21
2023-04-26T01:35:11.893Z,178.68
2023-04-26T01:36:11.911Z,177.93
2023-04-26T01:37:11.935Z,178.81
2023-04-26T01:38:11.999Z,177.61
2023-04-26T01:39:11.993Z,178.00
2023-04-26T01:40:12.093Z,178.29
2023-04-26T01:41:12.103Z,177.63
2023-04-26T01:42:12.124Z,178.31
2023-04-26T01:43:12.139Z,178.76
2023-04-26T01:44:12.176Z,177.96
2023-04-26T01:45:12.178Z,178.58
2023-04-26T01:46:12.212Z,179.28
2023-04-26T01:47:12.256Z,178.16
2023-04-26T01:48:12.280Z,178.21
2023-04-26T01:49:12.313Z,177.56
2023-04-26T01:50:12.371Z,177.90
2023-04-26T01:51:12.361Z,178.20
2023-04-26T01:52:12.369Z,178.01
2023-04-26T01:53:12.399Z,178.23
2023-04-26T01:54:12.394Z,177.31
2023-04-26T01:55:12.403Z,177.95
2023-04-26T01:56:12.441Z,178.14
2023-04-26T01:57:12.469Z,178.13
2023-04-26T01:58:12.531Z,176.65
2023-04-26T01:59:12.577Z,178.01
2023-04-26T02:00:12.584Z,178.13
2023-04-26T02:01:12.683Z,177.61
2023-04-26T02:02:12.753Z,177.90
2023-04-26T02:03:12.829Z,176.29
2023-04-26T02:04:12.732Z,177.13
2023-04-26T02:05:12.793Z,178.83
2023-04-26T02:06:12.769Z,178.91
2023-04-26T02:07:12.782Z,177.91
2023-04-26T02:08:12.834Z,177.20
2023-04-26T02:09:12.868Z,178.37
2023-04-26T02:10:12.857Z,178.45
2023-04-26T02:11:12.868Z,177.06
2023-04-26T02:12:12.878Z,178.86
2023-04-26T02:13:12.910Z,176.93
2023-04-26T02:14:12.971Z,177.70
2023-04-26T02:15:12.997Z,176.60
2023-04-26T02:16:13.060Z,177.07
2023-04-26T02:17:13.039Z,178.71
2023-04-26T02:18:13.104Z,177.93
2023-04-26T02:19:13.083Z,178.43
2023-04-26T02:20:13.156Z,177.92
2023-04-26T02:21:13.159Z,177.85
2023-04-26T02:22:13.171Z,178.85
2023-04-26T02:23:13.198Z,177.44
2023-04-26T02:24:13.207Z,178.22
2023-04-26T02:25:13.231Z,177.74
2023-04-26T02:26:13.246Z,177.77
2023-04-26T02:27:13.232Z,178.26
2023-04-26T02:28:13.304Z,177.04
2023-04-26T02:29:13.299Z,177.82
2023-04-26T02:30:13.343Z,177.53
2023-04-26T02:31:13.379Z,178.52
2023-04-26T02:32:13.387Z,176.67
2023-04-26T02:33:13.392Z,177.96
2023-04-26T02:34:13.385Z,176.69
2023-04-26T02:35:13.452Z,178.36
2023-04-26T02:36:13.458Z,177.64
2023-04-26T02:37:13.489Z,177.74
2023-04-26T02:38:13.483Z,178.33
2023-04-26T02:39:13.529Z,175.67
2023-04-26T02:40:13.571Z,177.24
2023-04-26T02:41:13.594Z,177.51
2023-04-26T02:42:13.565Z,176.90
2023-04-26T02:43:13.575Z,176.70
2023-04-26T02:44:13.573Z,177.45
2023-04-26T02:45:13.607Z,176.64
2023-04-26T02:46:14.169Z,175.74
2023-04-26T02:47:13.614Z,177.79
2023-04-26T02:48:13.648Z,177.48
2023-04-26T02:49:13.679Z,177.08
2023-04-26T02:50:13.717Z,176.70
2023-04-26T02:51:13.724Z,176.47
2023-04-26T02:52:13.757Z,176.85
2023-04-26T02:53:13.797Z,177.45
2023-04-26T02:54:13.755Z,177.30
2023-04-26T02:55:13.787Z,177.90
2023-04-26T02:56:13.808Z,177.13
2023-04-26T02:57:13.834Z,177.79
2023-04-26T02:58:13.890Z,177.43
2023-04-26T02:59:13.880Z,177.36
2023-04-26T03:00:14.032Z,177.75
2023-04-26T03:01:14.005Z,178.43
2023-04-26T03:02:13.996Z,176.85
2023-04-26T03:03:14.116Z,177.27
2023-04-26T03:04:14.080Z,177.04
2023-04-26T03:05:13.974Z,177.48
2023-04-26T03:06:13.995Z,177.13
2023-04-26T03:07:14.008Z,176.68
2023-04-26T03:08:14.021Z,177.03
2023-04-26T03:09:14.008Z,176.16
2023-04-26T03:10:14.029Z,178.27
2023-04-26T03:11:14.027Z,176.71
2023-04-26T03:12:14.013Z,176.60
2023-04-26T03:13:14.018Z,177.81
2023-04-26T03:14:14.043Z,176.63
2023-04-26T03:15:14.010Z,177.44
2023-04-26T03:16:14.039Z,176.89
2023-04-26T03:17:14.024Z,176.08
2023-04-26T03:18:14.062Z,176.82
2023-04-26T03:19:14.055Z,176.29
2023-04-26T03:20:14.023Z,176.91
2023-04-26T03:21:14.002Z,177.88
2023-04-26T03:22:14.004Z,176.45
2023-04-26T03:23:13.998Z,177.84
2023-04-26T03:24:14.014Z,176.95
2023-04-26T03:25:14.000Z,177.18
2023-04-26T03:26:14.040Z,176.42
2023-04-26T03:27:14.037Z,177.36
2023-04-26T03:28:14.052Z,176.53
2023-04-26T03:29:14.027Z,177.07
2023-04-26T03:30:14.006Z,176.22
2023-04-26T03:31:14.028Z,177.54
2023-04-26T03:32:14.108Z,176.61
2023-04-26T03:33:14.066Z,176.34
2023-04-26T03:34:13.991Z,175.93
2023-04-26T03:35:14.012Z,175.72
2023-04-26T03:36:13.989Z,177.19
2023-04-26T03:37:13.988Z,177.04
2023-04-26T03:38:13.992Z,175.90
2023-04-26T03:39:13.981Z,177.50
2023-04-26T03:40:13.998Z,176.00
2023-04-26T03:41:14.020Z,176.41
2023-04-26T03:42:14.002Z,177.86
2023-04-26T03:43:13.955Z,177.86
2023-04-26T03:44:13.981Z,177.05
2023-04-26T03:45:13.960Z,177.02
2023-04-26T03:46:14.002Z,177.37
2023-04-26T03:47:13.947Z,176.40
2023-04-26T03:48:13.948Z,176.49
2023-04-26T03:49:13.964Z,175.98
2023-04-26T03:50:13.946Z,176.48
2023-04-26T03:51:13.952Z,176.22
2023-04-26T03:52:13.967Z,176.50
2023-04-26T03:53:13.956Z,176.21
2023-04-26T03:54:13.959Z,176.34
2023-04-26T03:55:13.962Z,177.16
2023-04-26T03:56:13.957Z,177.83
2023-04-26T03:57:13.973Z,175.86
2023-04-26T03:58:13.942Z,176.54
2023-04-26T03:59:13.990Z,177.02
2023-04-26T04:00:13.954Z,176.44
2023-04-26T04:01:13.965Z,176.64
2023-04-26T04:02:13.999Z,176.39
2023-04-26T04:03:14.081Z,176.71
2023-04-26T04:04:14.314Z,176.88
2023-04-26T04:05:14.057Z,177.22
2023-04-26T04:06:13.939Z,177.13
2023-04-26T04:07:13.942Z,176.38
2023-04-26T04:08:13.910Z,176.58
2023-04-26T04:09:13.934Z,175.10
2023-04-26T04:10:13.967Z,176.95
2023-04-26T04:11:13.938Z,176.88
2023-04-26T04:12:13.962Z,175.89
2023-04-26T04:13:13.902Z,176.74
2023-04-26T04:14:13.953Z,177.29
2023-04-26T04:15:13.936Z,175.91
2023-04-26T04:16:13.984Z,176.24
2023-04-26T04:17:13.900Z,177.28
2023-04-26T04:18:13.938Z,176.05
2023-04-26T04:19:13.927Z,175.32
2023-04-26T04:20:13.885Z,175.52
2023-04-26T04:21:13.888Z,176.30
2023-04-26T04:22:13.880Z,177.15
2023-04-26T04:23:13.936Z,176.00
2023-04-26T04:24:13.897Z,176.47
2023-04-26T04:25:13.886Z,176.01
2023-04-26T04:26:13.916Z,176.68
2023-04-26T04:27:13.895Z,176.18
2023-04-26T04:28:13.897Z,176.05
2023-04-26T04:29:13.887Z,174.68
2023-04-26T04:30:13.886Z,176.21
2023-04-26T04:31:13.945Z,175.94
2023-04-26T04:32:13.880Z,175.92
2023-04-26T04:33:13.894Z,177.17
2023-04-26T04:34:13.912Z,176.65
2023-04-26T04:35:13.918Z,175.93
2023-04-26T04:36:13.912Z,175.94
2023-04-26T04:37:13.898Z,175.08
2023-04-26T04:38:13.914Z,176.76
2023-04-26T04:39:13.898Z,175.33
2023-04-26T04:40:13.940Z,177.27
2023-04-26T04:41:13.896Z,176.33
2023-04-26T04:42:13.908Z,176.80
2023-04-26T04:43:13.925Z,176.33
2023-04-26T04:44:13.942Z,177.53
2023-04-26T04:45:13.941Z,176.00
2023-04-26T04:46:13.963Z,176.82
2023-04-26T04:47:13.946Z,176.26
2023-04-26T04:48:13.949Z,175.36
2023-04-26T04:49:13.962Z,174.85
2023-04-26T04:50:13.990Z,175.86
2023-04-26T04:51:13.953Z,175.80
2023-04-26T04:52:13.957Z,174.89
2023-04-26T04:53:14.005Z,175.56
2023-04-26T04:54:13.972Z,175.90
2023-04-26T04:55:13.991Z,175.71
2023-04-26T04:56:13.995Z,176.48
2023-04-26T04:57:13.990Z,176.79
2023-04-26T04:58:13.988Z,175.19
2023-04-26T04:59:14.000Z,176.33
2023-04-26T05:00:14.002Z,174.95
2023-04-26T05:01:14.013Z,175.80
2023-04-26T05:02:14.118Z,175.85
2023-04-26T05:03:14.148Z,176.31
2023-04-26T05:04:14.153Z,174.50
2023-04-26T05:05:14.052Z,175.53
2023-04-26T05:06:14.022Z,173.56
2023-04-26T05:07:14.024Z,176.53
2023-04-26T05:08:14.019Z,175.09
2023-04-26T05:09:14.018Z,175.82
2023-04-26T05:10:14.034Z,174.05
2023-04-26T05:11:14.028Z,173.57
2023-04-26T05:12:14.031Z,174.76
2023-04-26T05:13:14.032Z,173.97
2023-04-26T05:14:14.041Z,172.01
2023-04-26T05:15:14.061Z,174.79
2023-04-26T05:16:14.078Z,174.92
2023-04-26T05:17:14.032Z,174.56
2023-04-26T05:18:14.112Z,174.00
2023-04-26T05:19:14.035Z,174.79
2023-04-26T05:20:14.037Z,174.37
2023-04-26T05:21:14.031Z,172.81
2023-04-26T05:22:14.038Z,174.04
2023-04-26T05:23:14.049Z,173.61
2023-04-26T05:24:14.023Z,173.34
2023-04-26T05:25:14.053Z,172.80
2023-04-26T05:26:14.114Z,172.19
2023-04-26T05:27:14.029Z,172.70
2023-04-26T05:28:14.074Z,166.71
2023-04-26T05:29:14.125Z,163.21
2023-04-26T05:30:14.035Z,157.63
2023-04-26T05:31:14.109Z,157.27
2023-04-26T05:32:14.061Z,152.32
2023-04-26T05:33:14.176Z,147.19
2023-04-26T05:34:14.157Z,143.73
2023-04-26T05:35:14.680Z,145.25
2023-04-26T05:36:14.427Z,146.20
2023-04-26T05:37:14.360Z,144.08
2023-04-26T05:38:14.394Z,147.56
2023-04-26T05:39:14.514Z,152.56
2023-04-26T05:40:14.564Z,152.61
2023-04-26T05:41:14.546Z,155.81
2023-04-26T05:42:16.363Z,158.12
2023-04-26T05:43:14.889Z,162.72
2023-04-26T05:44:14.595Z,164.97
2023-04-26T05:45:14.699Z,169.63
2023-04-26T05:46:14.622Z,172.48
2023-04-26T05:47:14.589Z,177.61
2023-04-26T05:48:14.766Z,181.03
2023-04-26T05:49:14.657Z,184.01
2023-04-26T05:50:14.698Z,189.33
2023-04-26T05:51:14.576Z,192.78
2023-04-26T05:52:14.586Z,192.32
2023-04-26T05:53:14.569Z,197.51
2023-04-26T05:54:14.524Z,199.65
2023-04-26T05:55:14.528Z,201.66
2023-04-26T05:56:14.562Z,205.50
2023-04-26T05:57:14.528Z,208.47
2023-04-26T05:58:14.529Z,211.68
2023-04-26T05:59:14.615Z,214.10
2023-04-26T06:00:14.565Z,220.51
2023-04-26T06:01:14.720Z,221.86
2023-04-26T06:02:14.541Z,227.39
2023-04-26T06:03:14.761Z,229.63
2023-04-26T06:04:14.740Z,234.43
2023-04-26T06:05:14.880Z,236.88
2023-04-26T06:06:14.546Z,239.25
2023-04-26T06:07:14.458Z,242.07
2023-04-26T06:08:14.433Z,244.70
2023-04-26T06:09:14.436Z,249.07
2023-04-26T06:10:14.469Z,248.86
2023-04-26T06:11:14.449Z,250.00
2023-04-26T06:12:14.447Z,250.00
2023-04-26T06:13:14.396Z,248.99
2023-04-26T06:14:28.763Z,249.76
2023-04-26T06:15:15.425Z,249.89
2023-04-26T06:16:14.445Z,250.18
2023-04-26T06:17:14.455Z,251.68
2023-04-26T06:18:14.439Z,251.86
2023-04-26T06:19:14.356Z,254.04
2023-04-26T06:20:14.392Z,249.63
2023-04-26T06:21:14.464Z,249.35
2023-04-26T06:22:14.338Z,249.41
2023-04-26T06:23:14.345Z,250.20
2023-04-26T06:24:14.411Z,248.49
2023-04-26T06:25:14.471Z,248.86
2023-04-26T06:26:14.534Z,249.90
2023-04-26T06:27:14.580Z,248.68
2023-04-26T06:28:14.640Z,249.99
2023-04-26T06:29:14.725Z,248.69
2023-04-26T06:30:15.200Z,248.67
2023-04-26T06:31:14.995Z,249.57
2023-04-26T06:32:14.897Z,249.28
2023-04-26T06:33:14.933Z,250.00
2023-04-26T06:34:14.992Z,248.99
2023-04-26T06:35:15.130Z,248.63
2023-04-26T06:36:15.113Z,249.19
2023-04-26T06:37:15.191Z,249.61
2023-04-26T06:38:15.214Z,250.00
2023-04-26T06:39:15.313Z,249.28
2023-04-26T06:40:15.708Z,250.87
2023-04-26T06:41:15.415Z,249.61
2023-04-26T06:42:15.471Z,247.93
2023-04-26T06:43:15.486Z,249.81
2023-04-26T06:44:15.504Z,249.24
2023-04-26T06:45:15.576Z,249.06
2023-04-26T06:46:15.629Z,249.21
2023-04-26T06:47:15.612Z,249.37
2023-04-26T06:48:15.673Z,246.87
2023-04-26T06:49:15.955Z,248.45
2023-04-26T06:50:15.886Z,248.36
2023-04-26T06:51:15.776Z,248.09
2023-04-26T06:52:15.875Z,250.00
2023-04-26T06:53:15.883Z,248.40
2023-04-26T06:54:15.892Z,250.00
2023-04-26T06:55:16.233Z,249.19
2023-04-26T06:56:15.998Z,248.00
2023-04-26T06:57:15.991Z,249.52
2023-04-26T06:58:16.014Z,248.83
2023-04-26T06:59:16.073Z,249.38
2023-04-26T07:00:16.132Z,248.68
2023-04-26T07:01:16.191Z,248.64
2023-04-26T07:02:16.270Z,248.84
2023-04-26T07:03:16.248Z,249.72
2023-04-26T07:04:16.263Z,249.31
2023-04-26T07:05:16.286Z,250.01
2023-04-26T07:06:16.173Z,245.33
2023-04-26T07:07:16.349Z,246.82
2023-04-26T07:08:16.212Z,247.94
2023-04-26T07:09:16.215Z,247.44
2023-04-26T07:10:16.249Z,248.48
2023-04-26T07:11:16.261Z,248.35
2023-04-26T07:12:16.306Z,248.69
2023-04-26T07:13:16.319Z,247.29
2023-04-26T07:14:16.317Z,248.18
2023-04-26T07:15:16.351Z,249.27
2023-04-26T07:16:16.380Z,248.60
2023-04-26T07:17:16.351Z,247.92
2023-04-26T07:18:16.420Z,249.29
2023-04-26T07:19:16.369Z,248.39
2023-04-26T07:20:16.414Z,247.89
2023-04-26T07:21:16.420Z,248.52
2023-04-26T07:22:16.467Z,247.97
2023-04-26T07:23:16.442Z,248.62
2023-04-26T07:24:16.587Z,248.20
2023-04-26T07:25:16.460Z,249.03
2023-04-26T07:26:16.466Z,248.56
2023-04-26T07:27:16.482Z,248.10
2023-04-26T07:28:16.484Z,246.13
2023-04-26T07:29:16.495Z,248.63
2023-04-26T07:30:16.582Z,250.00
2023-04-26T07:31:16.492Z,248.54
2023-04-26T07:32:16.519Z,247.48
2023-04-26T07:33:16.562Z,246.59
2023-04-26T07:34:16.528Z,248.41
2023-04-26T07:35:16.719Z,243.38
2023-04-26T07:36:16.521Z,243.04
2023-04-26T07:37:16.550Z,243.73
2023-04-26T07:38:16.504Z,243.48
2023-04-26T07:39:16.523Z,240.43
2023-04-26T07:40:16.656Z,239.03
2023-04-26T07:41:16.572Z,237.72
2023-04-26T07:42:16.549Z,234.11
2023-04-26T07:43:16.555Z,233.08
2023-04-26T07:44:16.553Z,233.81
2023-04-26T07:45:16.571Z,230.52
2023-04-26T07:46:16.735Z,230.68
2023-04-26T07:47:16.602Z,229.08
2023-04-26T07:48:16.650Z,226.60
2023-04-26T07:49:16.637Z,226.49
2023-04-26T07:50:16.745Z,225.16
2023-04-26T07:51:16.711Z,223.30
2023-04-26T07:52:16.745Z,222.49
2023-04-26T07:53:16.750Z,221.91
2023-04-26T07:54:16.787Z,219.67
2023-04-26T07:55:17.849Z,218.70
2023-04-26T07:56:17.001Z,218.68
2023-04-26T07:57:16.886Z,217.30
2023-04-26T07:58:16.981Z,216.12
2023-04-26T07:59:16.949Z,214.70
2023-04-26T08:00:17.243Z,212.71
2023-04-26T08:01:17.144Z,212.37
2023-04-26T08:02:17.174Z,208.68
2023-04-26T08:03:17.259Z,209.88
2023-04-26T08:04:17.270Z,208.24
2023-04-26T08:05:17.368Z,207.46
2023-04-26T08:06:17.332Z,206.18
2023-04-26T08:07:17.259Z,205.45
2023-04-26T08:08:18.981Z,204.76
2023-04-26T08:09:17.296Z,203.45
2023-04-26T08:10:18.266Z,202.25
2023-04-26T08:11:17.382Z,200.75
2023-04-26T08:12:18.242Z,199.37
2023-04-26T08:13:17.473Z,198.44
2023-04-26T08:14:17.519Z,197.18
2023-04-26T08:15:17.534Z,196.70
2023-04-26T08:16:17.619Z,194.98
2023-04-26T08:17:17.672Z,194.04
2023-04-26T08:18:17.686Z,191.18
2023-04-26T08:19:17.719Z,190.65
2023-04-26T08:20:17.872Z,189.34
2023-04-26T08:21:17.940Z,190.58
2023-04-26T08:22:17.885Z,190.45
2023-04-26T08:23:17.899Z,182.66
2023-04-26T08:24:17.973Z,180.85
2023-04-26T08:25:18.015Z,176.37
2023-04-26T08:26:18.071Z,151.03
2023-04-26T08:27:18.086Z,141.83
2023-04-26T08:28:18.280Z,138.64
2023-04-26T08:29:18.311Z,132.03
2023-04-26T08:30:18.848Z,143.17
2023-04-26T08:31:18.497Z,136.34
2023-04-26T08:32:18.357Z,130.50
2023-04-26T08:33:18.473Z,136.00
2023-04-26T08:34:18.527Z,136.93
2023-04-26T08:35:18.972Z,127.81
2023-04-26T08:36:19.281Z,130.13
2023-04-26T08:37:18.787Z,112.89
2023-04-26T08:38:18.748Z,94.21
2023-04-26T08:39:18.788Z,68.76
2023-04-26T08:40:19.285Z,80.63
2023-04-26T08:41:18.878Z,98.12
2023-04-26T08:42:18.905Z,104.64
2023-04-26T08:43:18.894Z,97.98
2023-04-26T08:44:19.145Z,86.75
2023-04-26T08:45:18.919Z,98.88
2023-04-26T08:46:18.930Z,108.47
2023-04-26T08:47:18.962Z,114.52
2023-04-26T08:48:19.117Z,120.07
2023-04-26T08:49:19.137Z,128.09
2023-04-26T08:50:19.297Z,129.54
2023-04-26T08:51:19.242Z,132.67
2023-04-26T08:52:19.297Z,131.02
2023-04-26T08:53:19.283Z,131.23
2023-04-26T08:54:19.355Z,125.79
2023-04-26T08:55:19.413Z,112.97
2023-04-26T08:56:19.459Z,119.76
2023-04-26T08:57:19.526Z,111.34
2023-04-26T08:58:19.536Z,125.03
2023-04-26T08:59:19.561Z,132.37
2023-04-26T09:00:19.759Z,131.53
2023-04-26T09:01:19.794Z,129.30
2023-04-26T09:02:19.737Z,129.99
2023-04-26T09:03:19.852Z,126.78
2023-04-26T09:04:19.971Z,130.43
2023-04-26T09:05:19.781Z,129.49
2023-04-26T09:06:20.271Z,128.56
2023-04-26T09:07:19.876Z,129.02
2023-04-26T09:08:19.901Z,129.71
2023-04-26T09:09:19.996Z,131.94
2023-04-26T09:10:19.952Z,135.30
2023-04-26T09:11:20.315Z,127.92
2023-04-26T09:12:20.044Z,130.39
2023-04-26T09:13:20.084Z,133.17
2023-04-26T09:14:20.094Z,132.32
2023-04-26T09:15:20.135Z,137.87
2023-04-26T09:16:20.280Z,128.86
2023-04-26T09:17:20.236Z,134.18
2023-04-26T09:18:20.253Z,131.73
2023-04-26T09:19:20.236Z,135.24
2023-04-26T09:20:20.281Z,133.88
2023-04-26T09:21:20.286Z,138.45
2023-04-26T09:22:20.282Z,137.33
2023-04-26T09:23:20.321Z,140.62
2023-04-26T09:24:20.357Z,146.55
2023-04-26T09:25:20.358Z,123.07
2023-04-26T09:26:20.428Z,131.97
2023-04-26T09:27:20.418Z,137.56
2023-04-26T09:28:20.381Z,130.51
2023-04-26T09:29:20.431Z,128.81
2023-04-26T09:30:20.434Z,126.45
2023-04-26T09:31:21.330Z,46.77
2023-04-26T09:32:20.558Z,52.56
2023-04-26T09:33:20.576Z,70.37
2023-04-26T09:34:20.577Z,80.43
2023-04-26T09:35:20.589Z,83.09
2023-04-26T09:36:20.612Z,92.44
2023-04-26T09:37:20.677Z,102.10
2023-04-26T09:38:20.711Z,104.47
2023-04-26T09:39:20.726Z,105.01
2023-04-26T09:40:20.825Z,107.37
2023-04-26T09:41:21.334Z,109.47
2023-04-26T09:42:20.867Z,111.35
2023-04-26T09:43:20.938Z,112.89
2023-04-26T09:44:20.919Z,113.01
2023-04-26T09:45:20.910Z,110.98
2023-04-26T09:46:21.018Z,115.25
2023-04-26T09:47:20.949Z,116.34
2023-04-26T09:48:21.008Z,119.24
2023-04-26T09:49:21.008Z,121.86
2023-04-26T09:50:21.035Z,121.79
2023-04-26T09:51:21.386Z,119.72
2023-04-26T09:52:21.086Z,124.34
2023-04-26T09:53:21.148Z,126.58
2023-04-26T09:54:21.117Z,128.14
2023-04-26T09:55:34.174Z,129.72
2023-04-26T09:56:22.227Z,129.82
2023-04-26T09:57:21.143Z,130.20
2023-04-26T09:58:21.142Z,130.97
2023-04-26T09:59:21.105Z,132.31
2023-04-26T10:00:21.099Z,134.28
2023-04-26T10:01:21.267Z,137.71
2023-04-26T10:02:21.144Z,138.37
2023-04-26T10:03:21.258Z,139.57
2023-04-26T10:04:21.193Z,137.41
2023-04-26T10:05:21.109Z,136.76
2023-04-26T10:06:21.081Z,138.07
2023-04-26T10:07:21.100Z,140.02
2023-04-26T10:08:21.051Z,142.64
2023-04-26T10:09:21.039Z,142.29
2023-04-26T10:10:21.043Z,143.84
2023-04-26T10:11:21.065Z,142.75
2023-04-26T10:12:21.121Z,143.92
2023-04-26T10:13:21.021Z,145.59
2023-04-26T10:14:21.025Z,145.87
2023-04-26T10:15:21.015Z,144.69
2023-04-26T10:16:21.081Z,147.58
2023-04-26T10:17:21.106Z,147.68
2023-04-26T10:18:20.991Z,145.56
2023-04-26T10:19:20.968Z,149.40
2023-04-26T10:20:21.134Z,149.97
2023-04-26T10:21:21.094Z,146.65
2023-04-26T10:22:21.051Z,148.70
2023-04-26T10:23:21.081Z,148.56
2023-04-26T10:24:21.104Z,149.16
2023-04-26T10:25:21.140Z,152.29
2023-04-26T10:26:21.144Z,152.13
2023-04-26T10:27:21.142Z,151.24
2023-04-26T10:28:21.174Z,152.48
2023-04-26T10:29:21.805Z,152.70
2023-04-26T10:30:21.251Z,154.00
2023-04-26T10:31:21.372Z,152.86
2023-04-26T10:32:21.296Z,153.55
2023-04-26T10:33:21.382Z,153.75
2023-04-26T10:34:21.317Z,153.28
2023-04-26T10:35:21.353Z,153.26
2023-04-26T10:36:21.831Z,153.57
2023-04-26T10:37:21.392Z,154.30
2023-04-26T10:38:21.408Z,154.54
2023-04-26T10:39:21.463Z,153.54
2023-04-26T10:40:21.446Z,152.53
2023-04-26T10:41:21.833Z,155.13
2023-04-26T10:42:22.483Z,153.70
2023-04-26T10:43:21.904Z,154.24
2023-04-26T10:44:21.531Z,153.80
2023-04-26T10:45:21.553Z,154.76
2023-04-26T10:46:21.578Z,153.70
2023-04-26T10:47:21.659Z,152.15
2023-04-26T10:48:21.599Z,153.67
2023-04-26T10:49:22.105Z,154.42
2023-04-26T10:50:21.677Z,153.30
2023-04-26T10:51:21.979Z,153.00
2023-04-26T10:52:21.727Z,152.27
2023-04-26T10:53:21.784Z,153.21
2023-04-26T10:54:21.761Z,153.30
2023-04-26T10:55:21.952Z,151.28
2023-04-26T10:56:21.809Z,153.78
2023-04-26T10:57:21.832Z,153.39
2023-04-26T10:58:21.835Z,153.25
2023-04-26T10:59:39.734Z,152.36
2023-04-26T11:00:22.878Z,152.48
2023-04-26T11:01:21.927Z,152.68
2023-04-26T11:02:21.899Z,152.75
2023-04-26T11:03:21.953Z,151.46
2023-04-26T11:04:21.947Z,150.03
2023-04-26T11:05:23.525Z,151.71
2023-04-26T11:06:21.829Z,152.47
2023-04-26T11:07:21.848Z,148.41
2023-04-26T11:08:21.830Z,151.87
2023-04-26T11:09:21.809Z,150.92
2023-04-26T11:10:21.809Z,149.68
2023-04-26T11:11:21.809Z,151.57
2023-04-26T11:12:21.840Z,151.81
2023-04-26T11:13:21.812Z,152.18
2023-04-26T11:14:21.830Z,152.26
2023-04-26T11:15:21.794Z,151.46
2023-04-26T11:16:21.996Z,152.20
2023-04-26T11:17:21.801Z,152.81
2023-04-26T11:18:21.757Z,152.18
2023-04-26T11:19:21.767Z,151.54
2023-04-26T11:20:21.767Z,152.19
2023-04-26T11:21:21.867Z,153.47
2023-04-26T11:22:21.804Z,153.03
2023-04-26T11:23:21.730Z,152.18
2023-04-26T11:24:21.767Z,152.10
2023-04-26T11:25:21.720Z,151.18
2023-04-26T11:26:21.729Z,152.42
2023-04-26T11:27:21.715Z,152.16
2023-04-26T11:28:21.700Z,152.04
2023-04-26T11:29:21.734Z,152.29
2023-04-26T11:30:21.722Z,151.04
2023-04-26T11:31:21.816Z,151.59
2023-04-26T11:32:21.701Z,151.46
2023-04-26T11:33:21.667Z,152.23
2023-04-26T11:34:21.645Z,152.57
2023-04-26T11:35:21.649Z,152.00
2023-04-26T11:36:21.848Z,152.75
2023-04-26T11:37:21.641Z,152.32
2023-04-26T11:38:21.650Z,151.29
2023-04-26T11:39:21.620Z,152.11
2023-04-26T11:40:21.696Z,151.21
2023-04-26T11:41:21.870Z,152.48
2023-04-26T11:42:21.616Z,150.81
2023-04-26T11:43:21.620Z,151.35
2023-04-26T11:44:21.646Z,151.07
2023-04-26T11:45:21.584Z,151.39
2023-04-26T11:46:21.668Z,150.54
2023-04-26T11:47:21.568Z,150.14
2023-04-26T11:48:21.712Z,149.69
2023-04-26T11:49:21.563Z,151.06
2023-04-26T11:50:21.576Z,150.11
2023-04-26T11:51:21.560Z,148.92
2023-04-26T11:52:21.559Z,149.38
2023-04-26T11:53:21.581Z,148.95
2023-04-26T11:54:21.545Z,148.41
2023-04-26T11:55:21.521Z,148.32
2023-04-26T11:56:21.548Z,146.95
2023-04-26T11:57:21.501Z,147.95
2023-04-26T11:58:21.509Z,148.16
2023-04-26T11:59:21.506Z,147.14
2023-04-26T12:00:21.507Z,145.75
2023-04-26T12:01:21.515Z,145.36
2023-04-26T12:02:21.638Z,143.76
2023-04-26T12:03:21.752Z,141.57
2023-04-26T12:04:21.598Z,138.74
2023-04-26T12:05:21.469Z,140.68
2023-04-26T12:06:21.478Z,140.45
2023-04-26T12:07:21.441Z,138.55
2023-04-26T12:08:21.447Z,138.38
2023-04-26T12:09:21.469Z,139.31
2023-04-26T12:10:21.441Z,138.95
2023-04-26T12:11:21.462Z,140.39
2023-04-26T12:12:21.458Z,139.62
2023-04-26T12:13:21.456Z,140.29
2023-04-26T12:14:21.414Z,138.52
2023-04-26T12:15:21.435Z,139.56
2023-04-26T12:17:21.575Z,138.51
2023-04-26T12:18:21.489Z,138.69
2023-04-26T12:19:21.406Z,138.51
2023-04-26T12:20:21.409Z,138.33
2023-04-26T12:21:21.438Z,138.27
2023-04-26T12:22:21.419Z,139.29
2023-04-26T12:23:21.417Z,140.58
2023-04-26T12:24:21.410Z,140.29
2023-04-26T12:25:21.383Z,140.94
2023-04-26T12:26:21.375Z,140.50
2023-04-26T12:27:21.396Z,141.05
2023-04-26T12:28:21.481Z,141.28
2023-04-26T12:29:21.379Z,141.15